sensor_id;sensor_type;location;lat;lon;timestamp;temperature;humidity
2723;DHT22;1369;53.216;10.396;2022-10-31T00:01:31;10.80;99.90
2723;DHT22;1369;53.216;10.396;2022-10-31T00:03:57;10.80;99.90
2723;DHT22;1369;53.216;10.396;2022-10-31T00:06:23;10.70;99.90
2723;DHT22;1369;53.216;10.396;2022-10-31T00:08:57;10.60;99.90
2723;DHT22;1369;53.216;10.396;2022-10-31T00:11:23;10.60;99.90
2723;DHT22;1369;53.216;10.396;2022-10-31T00:13:48;10.60;99.90
2723;DHT22;1369;53.216;10.396;2022-10-31T00:16:23;10.50;99.90
2723;DHT22;1369;53.216;10.396;2022-10-31T00:18:53;10.50;99.90
2723;DHT22;1369;53.216;10.396;2022-10-31T00:21:20;10.50;99.90
2723;DHT22;1369;53.216;10.396;2022-10-31T00:23:45;10.50;99.90
2723;DHT22;1369;53.216;10.396;2022-10-31T00:26:11;10.50;99.90
2723;DHT22;1369;53.216;10.396;2022-10-31T00:28:37;10.60;99.90
2723;DHT22;1369;53.216;10.396;2022-10-31T00:31:07;10.60;99.90
2723;DHT22;1369;53.216;10.396;2022-10-31T00:33:34;10.60;99.90
2723;DHT22;1369;53.216;10.396;2022-10-31T00:36:02;10.60;99.90
2723;DHT22;1369;53.216;10.396;2022-10-31T00:38:28;10.50;99.90
2723;DHT22;1369;53.216;10.396;2022-10-31T00:40:53;10.50;99.90
2723;DHT22;1369;53.216;10.396;2022-10-31T00:43:19;10.50;99.90
2723;DHT22;1369;53.216;10.396;2022-10-31T00:45:44;10.50;99.90
2723;DHT22;1369;53.216;10.396;2022-10-31T00:48:10;10.50;99.90
2723;DHT22;1369;53.216;10.396;2022-10-31T00:50:36;10.50;99.90
2723;DHT22;1369;53.216;10.396;2022-10-31T00:53:02;10.50;99.90
2723;DHT22;1369;53.216;10.396;2022-10-31T00:55:28;10.40;99.90
2723;DHT22;1369;53.216;10.396;2022-10-31T00:57:54;10.40;99.90
2723;DHT22;1369;53.216;10.396;2022-10-31T01:00:19;10.40;99.90
2723;DHT22;1369;53.216;10.396;2022-10-31T01:02:45;10.30;99.90
2723;DHT22;1369;53.216;10.396;2022-10-31T01:05:11;10.30;99.90
2723;DHT22;1369;53.216;10.396;2022-10-31T01:07:38;10.30;99.90
2723;DHT22;1369;53.216;10.396;2022-10-31T01:10:04;10.30;99.90
2723;DHT22;1369;53.216;10.396;2022-10-31T01:12:36;10.30;99.90
2723;DHT22;1369;53.216;10.396;2022-10-31T01:15:01;10.20;99.90
2723;DHT22;1369;53.216;10.396;2022-10-31T01:17:27;10.20;99.90
2723;DHT22;1369;53.216;10.396;2022-10-31T01:19:52;10.10;99.90
2723;DHT22;1369;53.216;10.396;2022-10-31T01:22:18;10.10;99.90
2723;DHT22;1369;53.216;10.396;2022-10-31T01:24:43;10.10;99.90
2723;DHT22;1369;53.216;10.396;2022-10-31T01:27:09;10.10;99.90
2723;DHT22;1369;53.216;10.396;2022-10-31T01:29:34;10.10;99.90
2723;DHT22;1369;53.216;10.396;2022-10-31T01:32:00;10.10;99.90
2723;DHT22;1369;53.216;10.396;2022-10-31T01:34:25;10.00;99.90
2723;DHT22;1369;53.216;10.396;2022-10-31T01:36:51;10.10;99.90
2723;DHT22;1369;53.216;10.396;2022-10-31T01:39:17;10.10;99.90
2723;DHT22;1369;53.216;10.396;2022-10-31T01:41:45;10.00;99.90
2723;DHT22;1369;53.216;10.396;2022-10-31T01:46:48;10.00;99.90
2723;DHT22;1369;53.216;10.396;2022-10-31T01:49:23;10.00;99.90
2723;DHT22;1369;53.216;10.396;2022-10-31T01:51:56;10.00;99.90
2723;DHT22;1369;53.216;10.396;2022-10-31T01:54:27;10.00;99.90
2723;DHT22;1369;53.216;10.396;2022-10-31T01:56:56;10.00;99.90
2723;DHT22;1369;53.216;10.396;2022-10-31T01:59:24;10.00;99.90
2723;DHT22;1369;53.216;10.396;2022-10-31T02:01:51;10.00;99.90
2723;DHT22;1369;53.216;10.396;2022-10-31T02:04:18;10.00;99.90
2723;DHT22;1369;53.216;10.396;2022-10-31T02:06:52;10.00;99.90
2723;DHT22;1369;53.216;10.396;2022-10-31T02:09:19;10.00;99.90
2723;DHT22;1369;53.216;10.396;2022-10-31T02:11:54;10.00;99.90
2723;DHT22;1369;53.216;10.396;2022-10-31T02:14:25;10.00;99.90
2723;DHT22;1369;53.216;10.396;2022-10-31T02:16:52;10.00;99.90
2723;DHT22;1369;53.216;10.396;2022-10-31T02:19:39;10.00;99.90
2723;DHT22;1369;53.216;10.396;2022-10-31T02:22:33;10.10;99.90
2723;DHT22;1369;53.216;10.396;2022-10-31T02:31:15;10.10;99.90
2723;DHT22;1369;53.216;10.396;2022-10-31T02:33:57;10.10;99.90
2723;DHT22;1369;53.216;10.396;2022-10-31T02:36:35;10.10;99.90
2723;DHT22;1369;53.216;10.396;2022-10-31T02:47:10;10.10;99.90
2723;DHT22;1369;53.216;10.396;2022-10-31T02:49:50;10.10;99.90
2723;DHT22;1369;53.216;10.396;2022-10-31T02:52:21;10.10;99.90
2723;DHT22;1369;53.216;10.396;2022-10-31T02:54:47;10.10;99.90
2723;DHT22;1369;53.216;10.396;2022-10-31T02:57:15;10.10;99.90
2723;DHT22;1369;53.216;10.396;2022-10-31T02:59:47;10.10;99.90
2723;DHT22;1369;53.216;10.396;2022-10-31T03:02:44;10.10;99.90
2723;DHT22;1369;53.216;10.396;2022-10-31T03:05:51;10.00;99.90
2723;DHT22;1369;53.216;10.396;2022-10-31T03:08:25;10.00;99.90
2723;DHT22;1369;53.216;10.396;2022-10-31T03:10:58;10.00;99.90
2723;DHT22;1369;53.216;10.396;2022-10-31T03:13:29;10.00;99.90
2723;DHT22;1369;53.216;10.396;2022-10-31T03:16:09;10.00;99.90
2723;DHT22;1369;53.216;10.396;2022-10-31T03:18:43;10.10;99.90
2723;DHT22;1369;53.216;10.396;2022-10-31T03:24:10;10.10;99.90
2723;DHT22;1369;53.216;10.396;2022-10-31T03:26:41;10.10;99.90
2723;DHT22;1369;53.216;10.396;2022-10-31T03:29:10;10.20;99.90
2723;DHT22;1369;53.216;10.396;2022-10-31T03:31:42;10.20;99.90
2723;DHT22;1369;53.216;10.396;2022-10-31T03:34:09;10.20;99.90
2723;DHT22;1369;53.216;10.396;2022-10-31T03:36:38;10.30;99.90
2723;DHT22;1369;53.216;10.396;2022-10-31T03:39:06;10.30;99.90
2723;DHT22;1369;53.216;10.396;2022-10-31T03:41:37;10.30;99.90
2723;DHT22;1369;53.216;10.396;2022-10-31T03:44:09;10.20;99.90
2723;DHT22;1369;53.216;10.396;2022-10-31T03:46:36;10.30;99.90
2723;DHT22;1369;53.216;10.396;2022-10-31T03:49:02;10.30;99.90
2723;DHT22;1369;53.216;10.396;2022-10-31T03:51:45;10.30;99.90
2723;DHT22;1369;53.216;10.396;2022-10-31T03:54:22;10.30;99.90
2723;DHT22;1369;53.216;10.396;2022-10-31T03:56:53;10.40;99.90
2723;DHT22;1369;53.216;10.396;2022-10-31T03:59:34;10.40;99.90
2723;DHT22;1369;53.216;10.396;2022-10-31T04:02:05;10.40;99.90
2723;DHT22;1369;53.216;10.396;2022-10-31T04:04:33;10.50;99.90
2723;DHT22;1369;53.216;10.396;2022-10-31T04:07:00;10.50;99.90
2723;DHT22;1369;53.216;10.396;2022-10-31T04:09:28;10.60;99.90
2723;DHT22;1369;53.216;10.396;2022-10-31T04:11:56;10.70;99.90
2723;DHT22;1369;53.216;10.396;2022-10-31T04:14:25;10.80;99.90
2723;DHT22;1369;53.216;10.396;2022-10-31T04:16:51;10.90;99.90
2723;DHT22;1369;53.216;10.396;2022-10-31T04:19:17;11.00;99.90
2723;DHT22;1369;53.216;10.396;2022-10-31T04:21:42;11.10;99.90
2723;DHT22;1369;53.216;10.396;2022-10-31T04:24:11;11.10;99.90
2723;DHT22;1369;53.216;10.396;2022-10-31T04:26:37;11.20;99.90
2723;DHT22;1369;53.216;10.396;2022-10-31T04:29:02;11.20;99.90
2723;DHT22;1369;53.216;10.396;2022-10-31T04:31:28;11.20;99.90
2723;DHT22;1369;53.216;10.396;2022-10-31T04:33:53;11.20;99.90
2723;DHT22;1369;53.216;10.396;2022-10-31T04:36:19;11.20;99.90
2723;DHT22;1369;53.216;10.396;2022-10-31T04:38:44;11.20;99.90
2723;DHT22;1369;53.216;10.396;2022-10-31T04:41:10;11.20;99.90
2723;DHT22;1369;53.216;10.396;2022-10-31T04:43:35;11.20;99.90
2723;DHT22;1369;53.216;10.396;2022-10-31T04:46:01;11.20;99.90
2723;DHT22;1369;53.216;10.396;2022-10-31T04:48:26;11.20;99.90
2723;DHT22;1369;53.216;10.396;2022-10-31T04:50:52;11.20;99.90
2723;DHT22;1369;53.216;10.396;2022-10-31T04:53:17;11.30;99.90
2723;DHT22;1369;53.216;10.396;2022-10-31T04:55:43;11.30;99.90
2723;DHT22;1369;53.216;10.396;2022-10-31T04:58:08;11.30;99.90
2723;DHT22;1369;53.216;10.396;2022-10-31T05:00:34;11.30;99.90
2723;DHT22;1369;53.216;10.396;2022-10-31T05:02:59;11.40;99.90
2723;DHT22;1369;53.216;10.396;2022-10-31T05:05:29;11.40;99.90
2723;DHT22;1369;53.216;10.396;2022-10-31T05:07:55;11.40;99.90
2723;DHT22;1369;53.216;10.396;2022-10-31T05:10:22;11.40;99.90
2723;DHT22;1369;53.216;10.396;2022-10-31T05:12:53;11.50;99.90
2723;DHT22;1369;53.216;10.396;2022-10-31T05:15:20;11.50;99.90
2723;DHT22;1369;53.216;10.396;2022-10-31T05:17:46;11.50;99.90
2723;DHT22;1369;53.216;10.396;2022-10-31T05:20:13;11.50;99.90
2723;DHT22;1369;53.216;10.396;2022-10-31T05:22:45;11.60;99.90
2723;DHT22;1369;53.216;10.396;2022-10-31T05:25:12;11.60;99.90
2723;DHT22;1369;53.216;10.396;2022-10-31T05:27:41;11.70;99.90
2723;DHT22;1369;53.216;10.396;2022-10-31T05:30:08;11.80;99.90
2723;DHT22;1369;53.216;10.396;2022-10-31T05:32:41;11.90;99.90
2723;DHT22;1369;53.216;10.396;2022-10-31T05:35:08;11.90;99.90
2723;DHT22;1369;53.216;10.396;2022-10-31T05:37:37;12.00;99.90
2723;DHT22;1369;53.216;10.396;2022-10-31T05:40:04;12.10;99.90
2723;DHT22;1369;53.216;10.396;2022-10-31T05:42:30;12.10;99.90
2723;DHT22;1369;53.216;10.396;2022-10-31T05:44:56;12.20;99.90
2723;DHT22;1369;53.216;10.396;2022-10-31T05:47:21;12.20;99.90
2723;DHT22;1369;53.216;10.396;2022-10-31T05:49:47;12.30;99.90
2723;DHT22;1369;53.216;10.396;2022-10-31T05:52:12;12.30;99.90
2723;DHT22;1369;53.216;10.396;2022-10-31T05:54:38;12.30;99.90
2723;DHT22;1369;53.216;10.396;2022-10-31T05:57:03;12.30;99.90
2723;DHT22;1369;53.216;10.396;2022-10-31T05:59:29;12.30;99.90
2723;DHT22;1369;53.216;10.396;2022-10-31T06:01:54;12.40;99.90
2723;DHT22;1369;53.216;10.396;2022-10-31T06:04:19;12.40;99.90
2723;DHT22;1369;53.216;10.396;2022-10-31T06:06:45;12.50;99.90
2723;DHT22;1369;53.216;10.396;2022-10-31T06:09:11;12.50;99.90
2723;DHT22;1369;53.216;10.396;2022-10-31T06:11:37;12.60;99.90
2723;DHT22;1369;53.216;10.396;2022-10-31T06:14:03;12.60;99.90
2723;DHT22;1369;53.216;10.396;2022-10-31T06:16:29;12.60;99.90
2723;DHT22;1369;53.216;10.396;2022-10-31T06:18:54;12.60;99.90
2723;DHT22;1369;53.216;10.396;2022-10-31T06:21:20;12.70;99.90
2723;DHT22;1369;53.216;10.396;2022-10-31T06:23:45;12.70;99.90
2723;DHT22;1369;53.216;10.396;2022-10-31T06:26:11;12.60;99.90
2723;DHT22;1369;53.216;10.396;2022-10-31T06:28:36;12.70;99.90
2723;DHT22;1369;53.216;10.396;2022-10-31T06:31:02;12.70;99.90
2723;DHT22;1369;53.216;10.396;2022-10-31T06:33:27;12.70;99.90
2723;DHT22;1369;53.216;10.396;2022-10-31T06:35:53;12.70;99.90
2723;DHT22;1369;53.216;10.396;2022-10-31T06:38:18;12.80;99.90
2723;DHT22;1369;53.216;10.396;2022-10-31T06:40:44;12.80;99.90
2723;DHT22;1369;53.216;10.396;2022-10-31T06:43:09;12.90;99.90
2723;DHT22;1369;53.216;10.396;2022-10-31T06:45:36;12.90;99.90
2723;DHT22;1369;53.216;10.396;2022-10-31T06:48:03;13.00;99.90
2723;DHT22;1369;53.216;10.396;2022-10-31T06:50:28;13.10;99.90
2723;DHT22;1369;53.216;10.396;2022-10-31T06:52:56;13.10;99.90
2723;DHT22;1369;53.216;10.396;2022-10-31T06:55:23;13.20;99.90
2723;DHT22;1369;53.216;10.396;2022-10-31T06:57:57;13.30;99.90
2723;DHT22;1369;53.216;10.396;2022-10-31T07:00:23;13.30;99.90
2723;DHT22;1369;53.216;10.396;2022-10-31T07:03:03;13.30;99.90
2723;DHT22;1369;53.216;10.396;2022-10-31T07:05:29;13.40;99.90
2723;DHT22;1369;53.216;10.396;2022-10-31T07:07:56;13.40;99.90
2723;DHT22;1369;53.216;10.396;2022-10-31T07:10:23;13.50;99.90
2723;DHT22;1369;53.216;10.396;2022-10-31T07:12:57;13.50;99.90
2723;DHT22;1369;53.216;10.396;2022-10-31T07:15:24;13.50;99.90
2723;DHT22;1369;53.216;10.396;2022-10-31T07:17:49;13.50;99.90
2723;DHT22;1369;53.216;10.396;2022-10-31T07:20:15;13.50;99.90
2723;DHT22;1369;53.216;10.396;2022-10-31T07:22:40;13.60;99.90
2723;DHT22;1369;53.216;10.396;2022-10-31T07:25:06;13.60;99.90
2723;DHT22;1369;53.216;10.396;2022-10-31T07:27:39;13.70;99.90
2723;DHT22;1369;53.216;10.396;2022-10-31T07:30:06;13.80;99.90
2723;DHT22;1369;53.216;10.396;2022-10-31T07:32:42;13.80;99.90
2723;DHT22;1369;53.216;10.396;2022-10-31T07:35:16;13.90;99.90
2723;DHT22;1369;53.216;10.396;2022-10-31T07:37:42;13.90;99.90
2723;DHT22;1369;53.216;10.396;2022-10-31T07:40:08;14.00;99.90
2723;DHT22;1369;53.216;10.396;2022-10-31T07:42:38;14.00;99.90
2723;DHT22;1369;53.216;10.396;2022-10-31T07:45:05;14.10;99.90
2723;DHT22;1369;53.216;10.396;2022-10-31T07:47:45;14.10;99.90
2723;DHT22;1369;53.216;10.396;2022-10-31T07:50:17;14.20;99.90
2723;DHT22;1369;53.216;10.396;2022-10-31T07:52:43;14.20;99.90
2723;DHT22;1369;53.216;10.396;2022-10-31T07:55:09;14.20;99.90
2723;DHT22;1369;53.216;10.396;2022-10-31T07:57:35;14.30;99.90
2723;DHT22;1369;53.216;10.396;2022-10-31T08:00:06;14.30;99.90
2723;DHT22;1369;53.216;10.396;2022-10-31T08:02:32;14.40;99.90
2723;DHT22;1369;53.216;10.396;2022-10-31T08:04:58;14.50;99.90
2723;DHT22;1369;53.216;10.396;2022-10-31T08:07:25;14.50;99.90
2723;DHT22;1369;53.216;10.396;2022-10-31T08:09:50;14.60;99.90
2723;DHT22;1369;53.216;10.396;2022-10-31T08:12:16;14.60;99.90
2723;DHT22;1369;53.216;10.396;2022-10-31T08:14:41;14.70;99.90
2723;DHT22;1369;53.216;10.396;2022-10-31T08:17:07;14.70;99.90
2723;DHT22;1369;53.216;10.396;2022-10-31T08:19:32;14.80;99.90
2723;DHT22;1369;53.216;10.396;2022-10-31T08:21:58;14.80;99.90
2723;DHT22;1369;53.216;10.396;2022-10-31T08:24:24;14.80;99.90
2723;DHT22;1369;53.216;10.396;2022-10-31T08:26:49;14.90;99.90
2723;DHT22;1369;53.216;10.396;2022-10-31T08:29:15;14.90;99.90
2723;DHT22;1369;53.216;10.396;2022-10-31T08:31:42;15.00;99.90
2723;DHT22;1369;53.216;10.396;2022-10-31T08:34:07;15.00;99.90
2723;DHT22;1369;53.216;10.396;2022-10-31T08:36:33;15.10;99.90
2723;DHT22;1369;53.216;10.396;2022-10-31T08:38:59;15.10;99.90
2723;DHT22;1369;53.216;10.396;2022-10-31T08:41:25;15.20;99.90
2723;DHT22;1369;53.216;10.396;2022-10-31T08:43:50;15.20;99.90
2723;DHT22;1369;53.216;10.396;2022-10-31T08:46:16;15.30;99.90
2723;DHT22;1369;53.216;10.396;2022-10-31T08:48:42;15.30;99.90
2723;DHT22;1369;53.216;10.396;2022-10-31T08:51:08;15.40;99.90
2723;DHT22;1369;53.216;10.396;2022-10-31T08:53:34;15.50;99.90
2723;DHT22;1369;53.216;10.396;2022-10-31T08:56:00;15.60;99.90
2723;DHT22;1369;53.216;10.396;2022-10-31T08:58:25;15.60;99.90
2723;DHT22;1369;53.216;10.396;2022-10-31T09:00:52;15.60;99.90
2723;DHT22;1369;53.216;10.396;2022-10-31T09:03:26;15.60;99.90
2723;DHT22;1369;53.216;10.396;2022-10-31T09:05:58;15.60;99.90
2723;DHT22;1369;53.216;10.396;2022-10-31T09:08:24;15.60;99.90
2723;DHT22;1369;53.216;10.396;2022-10-31T09:10:50;15.60;99.90
2723;DHT22;1369;53.216;10.396;2022-10-31T09:13:18;15.70;99.90
2723;DHT22;1369;53.216;10.396;2022-10-31T09:15:46;15.70;99.90
2723;DHT22;1369;53.216;10.396;2022-10-31T09:18:13;15.70;99.90
2723;DHT22;1369;53.216;10.396;2022-10-31T09:20:40;15.60;99.90
2723;DHT22;1369;53.216;10.396;2022-10-31T09:23:08;15.50;99.90
2723;DHT22;1369;53.216;10.396;2022-10-31T09:25:35;15.40;99.90
2723;DHT22;1369;53.216;10.396;2022-10-31T09:28:02;15.40;99.90
2723;DHT22;1369;53.216;10.396;2022-10-31T09:30:30;15.40;99.90
2723;DHT22;1369;53.216;10.396;2022-10-31T09:33:00;15.50;99.90
2723;DHT22;1369;53.216;10.396;2022-10-31T09:35:26;15.40;99.90
2723;DHT22;1369;53.216;10.396;2022-10-31T09:37:59;15.40;99.90
2723;DHT22;1369;53.216;10.396;2022-10-31T09:40:39;15.50;99.90
2723;DHT22;1369;53.216;10.396;2022-10-31T09:51:24;15.80;99.90
2723;DHT22;1369;53.216;10.396;2022-10-31T09:54:01;15.80;99.90
2723;DHT22;1369;53.216;10.396;2022-10-31T09:56:27;15.90;99.90
2723;DHT22;1369;53.216;10.396;2022-10-31T09:58:58;15.80;99.90
2723;DHT22;1369;53.216;10.396;2022-10-31T10:06:39;15.50;99.90
2723;DHT22;1369;53.216;10.396;2022-10-31T10:09:09;15.60;99.90
2723;DHT22;1369;53.216;10.396;2022-10-31T10:12:36;15.60;99.90
2723;DHT22;1369;53.216;10.396;2022-10-31T10:15:43;15.60;99.90
2723;DHT22;1369;53.216;10.396;2022-10-31T10:21:27;15.70;99.90
2723;DHT22;1369;53.216;10.396;2022-10-31T10:24:17;15.80;99.90
2723;DHT22;1369;53.216;10.396;2022-10-31T10:29:51;16.00;99.90
2723;DHT22;1369;53.216;10.396;2022-10-31T10:32:23;16.20;99.90
2723;DHT22;1369;53.216;10.396;2022-10-31T10:34:56;16.20;99.90
2723;DHT22;1369;53.216;10.396;2022-10-31T10:37:32;16.00;99.90
2723;DHT22;1369;53.216;10.396;2022-10-31T10:40:15;16.10;99.90
2723;DHT22;1369;53.216;10.396;2022-10-31T10:42:45;16.10;99.90
2723;DHT22;1369;53.216;10.396;2022-10-31T10:45:34;16.10;99.90
2723;DHT22;1369;53.216;10.396;2022-10-31T10:48:41;16.20;99.90
2723;DHT22;1369;53.216;10.396;2022-10-31T10:51:10;16.30;99.90
2723;DHT22;1369;53.216;10.396;2022-10-31T10:56:51;16.40;99.90
2723;DHT22;1369;53.216;10.396;2022-10-31T10:59:21;16.40;99.90
2723;DHT22;1369;53.216;10.396;2022-10-31T11:01:49;16.50;99.90
2723;DHT22;1369;53.216;10.396;2022-10-31T11:07:05;16.30;99.90
2723;DHT22;1369;53.216;10.396;2022-10-31T11:09:31;16.30;99.90
2723;DHT22;1369;53.216;10.396;2022-10-31T11:11:57;16.40;99.90
2723;DHT22;1369;53.216;10.396;2022-10-31T11:14:24;16.40;99.90
2723;DHT22;1369;53.216;10.396;2022-10-31T11:16:55;16.50;99.90
2723;DHT22;1369;53.216;10.396;2022-10-31T11:19:25;16.50;99.90
2723;DHT22;1369;53.216;10.396;2022-10-31T11:21:54;16.50;99.90
2723;DHT22;1369;53.216;10.396;2022-10-31T11:26:48;16.40;99.90
2723;DHT22;1369;53.216;10.396;2022-10-31T11:29:24;16.30;99.90
2723;DHT22;1369;53.216;10.396;2022-10-31T11:31:55;16.30;99.90
2723;DHT22;1369;53.216;10.396;2022-10-31T11:34:34;16.30;99.90
2723;DHT22;1369;53.216;10.396;2022-10-31T11:37:24;16.40;99.90
2723;DHT22;1369;53.216;10.396;2022-10-31T11:39:53;16.50;99.90
2723;DHT22;1369;53.216;10.396;2022-10-31T11:42:40;16.70;99.90
2723;DHT22;1369;53.216;10.396;2022-10-31T11:45:31;16.80;99.90
2723;DHT22;1369;53.216;10.396;2022-10-31T11:47:56;16.90;99.90
2723;DHT22;1369;53.216;10.396;2022-10-31T11:50:35;17.00;99.90
2723;DHT22;1369;53.216;10.396;2022-10-31T11:53:02;17.10;99.90
2723;DHT22;1369;53.216;10.396;2022-10-31T11:55:34;17.20;99.90
2723;DHT22;1369;53.216;10.396;2022-10-31T11:58:01;17.30;99.90
2723;DHT22;1369;53.216;10.396;2022-10-31T12:00:36;17.40;99.90
2723;DHT22;1369;53.216;10.396;2022-10-31T12:05:52;17.40;99.90
2723;DHT22;1369;53.216;10.396;2022-10-31T12:08:19;17.40;99.90
2723;DHT22;1369;53.216;10.396;2022-10-31T12:11:13;17.20;99.90
2723;DHT22;1369;53.216;10.396;2022-10-31T12:16:51;17.00;99.90
2723;DHT22;1369;53.216;10.396;2022-10-31T12:24:59;17.30;99.90
2723;DHT22;1369;53.216;10.396;2022-10-31T12:33:36;17.10;99.90
2723;DHT22;1369;53.216;10.396;2022-10-31T12:38:43;16.80;99.90
2723;DHT22;1369;53.216;10.396;2022-10-31T12:41:32;16.70;99.90
2723;DHT22;1369;53.216;10.396;2022-10-31T12:44:21;16.70;99.90
2723;DHT22;1369;53.216;10.396;2022-10-31T12:47:11;16.70;99.90
2723;DHT22;1369;53.216;10.396;2022-10-31T12:50:10;16.70;99.90
2723;DHT22;1369;53.216;10.396;2022-10-31T12:53:31;16.80;99.90
2723;DHT22;1369;53.216;10.396;2022-10-31T12:58:31;16.70;99.90
2723;DHT22;1369;53.216;10.396;2022-10-31T13:01:19;16.80;99.90
2723;DHT22;1369;53.216;10.396;2022-10-31T13:06:49;16.80;99.90
2723;DHT22;1369;53.216;10.396;2022-10-31T13:09:20;16.80;99.90
2723;DHT22;1369;53.216;10.396;2022-10-31T13:11:52;16.80;99.90
2723;DHT22;1369;53.216;10.396;2022-10-31T13:14:31;16.80;99.90
2723;DHT22;1369;53.216;10.396;2022-10-31T13:16:59;16.80;99.90
2723;DHT22;1369;53.216;10.396;2022-10-31T13:27:59;16.60;99.90
2723;DHT22;1369;53.216;10.396;2022-10-31T13:30:29;16.50;99.90
2723;DHT22;1369;53.216;10.396;2022-10-31T13:35:50;16.20;99.90
2723;DHT22;1369;53.216;10.396;2022-10-31T13:41:04;16.00;99.90
2723;DHT22;1369;53.216;10.396;2022-10-31T13:46:42;16.00;99.90
2723;DHT22;1369;53.216;10.396;2022-10-31T13:49:45;16.00;99.90
2723;DHT22;1369;53.216;10.396;2022-10-31T13:54:38;15.90;99.90
2723;DHT22;1369;53.216;10.396;2022-10-31T13:57:14;15.90;99.90
2723;DHT22;1369;53.216;10.396;2022-10-31T13:59:48;15.90;99.90
2723;DHT22;1369;53.216;10.396;2022-10-31T14:02:16;15.90;99.90
2723;DHT22;1369;53.216;10.396;2022-10-31T14:04:51;15.80;99.90
2723;DHT22;1369;53.216;10.396;2022-10-31T14:07:23;15.80;99.90
2723;DHT22;1369;53.216;10.396;2022-10-31T14:10:04;15.80;99.90
2723;DHT22;1369;53.216;10.396;2022-10-31T14:12:37;15.80;99.90
2723;DHT22;1369;53.216;10.396;2022-10-31T14:17:48;15.60;99.90
2723;DHT22;1369;53.216;10.396;2022-10-31T14:22:41;15.60;99.90
2723;DHT22;1369;53.216;10.396;2022-10-31T14:25:26;15.60;99.90
2723;DHT22;1369;53.216;10.396;2022-10-31T14:27:52;15.60;99.90
2723;DHT22;1369;53.216;10.396;2022-10-31T14:30:20;15.60;99.90
2723;DHT22;1369;53.216;10.396;2022-10-31T14:32:59;15.50;99.90
2723;DHT22;1369;53.216;10.396;2022-10-31T14:35:34;15.50;99.90
2723;DHT22;1369;53.216;10.396;2022-10-31T14:38:11;15.40;99.90
2723;DHT22;1369;53.216;10.396;2022-10-31T14:43:31;15.30;99.90
2723;DHT22;1369;53.216;10.396;2022-10-31T14:46:01;15.20;99.90
2723;DHT22;1369;53.216;10.396;2022-10-31T14:48:43;15.20;99.90
2723;DHT22;1369;53.216;10.396;2022-10-31T14:51:19;15.10;99.90
2723;DHT22;1369;53.216;10.396;2022-10-31T14:53:51;15.10;99.90
2723;DHT22;1369;53.216;10.396;2022-10-31T14:56:28;15.00;99.90
2723;DHT22;1369;53.216;10.396;2022-10-31T14:58:57;14.90;99.90
2723;DHT22;1369;53.216;10.396;2022-10-31T15:04:13;14.80;99.90
2723;DHT22;1369;53.216;10.396;2022-10-31T15:06:42;14.70;99.90
2723;DHT22;1369;53.216;10.396;2022-10-31T15:09:32;14.70;99.90
2723;DHT22;1369;53.216;10.396;2022-10-31T15:11:59;14.70;99.90
2723;DHT22;1369;53.216;10.396;2022-10-31T15:14:28;14.60;99.90
2723;DHT22;1369;53.216;10.396;2022-10-31T15:16:56;14.50;99.90
2723;DHT22;1369;53.216;10.396;2022-10-31T15:19:25;14.50;99.90
2723;DHT22;1369;53.216;10.396;2022-10-31T15:21:53;14.40;99.90
2723;DHT22;1369;53.216;10.396;2022-10-31T15:24:19;14.40;99.90
2723;DHT22;1369;53.216;10.396;2022-10-31T15:26:52;14.40;99.90
2723;DHT22;1369;53.216;10.396;2022-10-31T15:29:20;14.30;99.90
2723;DHT22;1369;53.216;10.396;2022-10-31T15:31:52;14.30;99.90
2723;DHT22;1369;53.216;10.396;2022-10-31T15:36:52;14.20;99.90
2723;DHT22;1369;53.216;10.396;2022-10-31T15:39:18;14.10;99.90
2723;DHT22;1369;53.216;10.396;2022-10-31T15:41:55;14.00;99.90
2723;DHT22;1369;53.216;10.396;2022-10-31T15:44:27;14.00;99.90
2723;DHT22;1369;53.216;10.396;2022-10-31T15:46:59;13.90;99.90
2723;DHT22;1369;53.216;10.396;2022-10-31T15:49:32;13.90;99.90
2723;DHT22;1369;53.216;10.396;2022-10-31T15:52:14;13.80;99.90
2723;DHT22;1369;53.216;10.396;2022-10-31T15:54:57;13.70;99.90
2723;DHT22;1369;53.216;10.396;2022-10-31T15:57:24;13.60;99.90
2723;DHT22;1369;53.216;10.396;2022-10-31T15:59:51;13.60;99.90
2723;DHT22;1369;53.216;10.396;2022-10-31T16:02:26;13.60;99.90
2723;DHT22;1369;53.216;10.396;2022-10-31T16:04:54;13.50;99.90
2723;DHT22;1369;53.216;10.396;2022-10-31T16:07:21;13.50;99.90
2723;DHT22;1369;53.216;10.396;2022-10-31T16:10:00;13.50;99.90
2723;DHT22;1369;53.216;10.396;2022-10-31T16:12:34;13.50;99.90
2723;DHT22;1369;53.216;10.396;2022-10-31T16:15:00;13.40;99.90
2723;DHT22;1369;53.216;10.396;2022-10-31T16:17:27;13.40;99.90
2723;DHT22;1369;53.216;10.396;2022-10-31T16:20:04;13.30;99.90
2723;DHT22;1369;53.216;10.396;2022-10-31T16:22:36;13.20;99.90
2723;DHT22;1369;53.216;10.396;2022-10-31T16:25:38;13.20;99.90
2723;DHT22;1369;53.216;10.396;2022-10-31T16:28:12;13.20;99.90
2723;DHT22;1369;53.216;10.396;2022-10-31T16:30:41;13.20;99.90
2723;DHT22;1369;53.216;10.396;2022-10-31T16:33:34;13.20;99.90
2723;DHT22;1369;53.216;10.396;2022-10-31T16:38:56;13.20;99.90
2723;DHT22;1369;53.216;10.396;2022-10-31T16:41:23;13.10;99.90
2723;DHT22;1369;53.216;10.396;2022-10-31T16:43:49;13.10;99.90
2723;DHT22;1369;53.216;10.396;2022-10-31T16:46:18;13.00;99.90
2723;DHT22;1369;53.216;10.396;2022-10-31T16:48:45;13.00;99.90
2723;DHT22;1369;53.216;10.396;2022-10-31T16:51:10;13.10;99.90
2723;DHT22;1369;53.216;10.396;2022-10-31T16:53:36;13.10;99.90
2723;DHT22;1369;53.216;10.396;2022-10-31T16:56:03;13.10;99.90
2723;DHT22;1369;53.216;10.396;2022-10-31T16:58:33;13.20;99.90
2723;DHT22;1369;53.216;10.396;2022-10-31T17:00:59;13.30;99.90
2723;DHT22;1369;53.216;10.396;2022-10-31T17:03:25;13.40;99.90
2723;DHT22;1369;53.216;10.396;2022-10-31T17:05:51;13.40;99.90
2723;DHT22;1369;53.216;10.396;2022-10-31T17:08:17;13.50;99.90
2723;DHT22;1369;53.216;10.396;2022-10-31T17:10:43;13.40;99.90
2723;DHT22;1369;53.216;10.396;2022-10-31T17:13:19;13.50;99.90
2723;DHT22;1369;53.216;10.396;2022-10-31T17:15:49;13.50;99.90
2723;DHT22;1369;53.216;10.396;2022-10-31T17:18:16;13.50;99.90
2723;DHT22;1369;53.216;10.396;2022-10-31T17:20:42;13.50;99.90
2723;DHT22;1369;53.216;10.396;2022-10-31T17:23:10;13.50;99.90
2723;DHT22;1369;53.216;10.396;2022-10-31T17:25:36;13.50;99.90
2723;DHT22;1369;53.216;10.396;2022-10-31T17:28:01;13.50;99.90
2723;DHT22;1369;53.216;10.396;2022-10-31T17:30:27;13.50;99.90
2723;DHT22;1369;53.216;10.396;2022-10-31T17:32:53;13.60;99.90
2723;DHT22;1369;53.216;10.396;2022-10-31T17:35:20;13.60;99.90
2723;DHT22;1369;53.216;10.396;2022-10-31T17:37:46;13.60;99.90
2723;DHT22;1369;53.216;10.396;2022-10-31T17:40:15;13.60;99.90
2723;DHT22;1369;53.216;10.396;2022-10-31T17:42:41;13.60;99.90
2723;DHT22;1369;53.216;10.396;2022-10-31T17:45:07;13.60;99.90
2723;DHT22;1369;53.216;10.396;2022-10-31T17:47:33;13.60;99.90
2723;DHT22;1369;53.216;10.396;2022-10-31T17:49:59;13.50;99.90
2723;DHT22;1369;53.216;10.396;2022-10-31T17:52:25;13.60;99.90
2723;DHT22;1369;53.216;10.396;2022-10-31T17:54:51;13.50;99.90